Time;durP1;ratioP1;P1;durP2;ratioP2;P2;SDS_P1;SDS_P2;PMS_P1;PMS_P2;Temp;Humidity;BMP_temperature;BMP_pressure;BME280_temperature;BME280_humidity;BME280_pressure;Samples;Min_cycle;Max_cycle;Signal;HPM_P1;HPM_P2
2021/11/30 00:00:51;;;;;;;9.47;5.80;;;4.60;99.90;;;;;;5032857;28;20450;-77
2021/11/30 00:03:17;;;;;;;12.80;7.90;;;4.50;99.90;;;;;;5033539;28;20992;-77
2021/11/30 00:05:45;;;;;;;12.47;7.23;;;4.50;99.90;;;;;;5033195;28;20571;-77
2021/11/30 00:08:12;;;;;;;11.80;6.80;;;4.60;99.90;;;;;;5033301;28;20427;-77
2021/11/30 00:10:47;;;;;;;12.93;6.73;;;4.60;99.90;;;;;;5032820;28;20415;-77
2021/11/30 00:13:19;;;;;;;13.10;6.97;;;4.60;99.90;;;;;;5033225;28;20432;-77
2021/11/30 00:15:46;;;;;;;11.47;6.30;;;4.60;99.90;;;;;;5033057;28;20518;-77
2021/11/30 00:18:13;;;;;;;10.30;6.17;;;4.60;99.90;;;;;;5033085;28;20428;-77
2021/11/30 00:20:41;;;;;;;8.70;6.30;;;4.60;99.90;;;;;;5032599;28;20944;-77
2021/11/30 00:23:08;;;;;;;15.63;7.70;;;4.60;99.90;;;;;;5032938;28;20462;-77
2021/11/30 00:25:35;;;;;;;12.37;6.23;;;4.60;99.90;;;;;;5032889;28;20423;-77
2021/11/30 00:28:02;;;;;;;13.10;5.80;;;4.60;99.90;;;;;;5033006;28;20463;-77
2021/11/30 00:30:28;;;;;;;10.80;6.00;;;4.60;99.90;;;;;;5032850;28;20416;-77
2021/11/30 00:32:57;;;;;;;9.63;5.50;;;4.60;99.90;;;;;;5032790;28;20461;-77
2021/11/30 00:35:23;;;;;;;9.13;6.40;;;4.50;99.90;;;;;;5032578;28;20440;-77
2021/11/30 00:37:49;;;;;;;9.13;6.07;;;4.60;99.90;;;;;;5032680;28;20493;-77
2021/11/30 00:40:16;;;;;;;12.27;6.70;;;4.50;99.90;;;;;;5032680;28;20938;-77
2021/11/30 00:42:42;;;;;;;8.30;6.03;;;4.50;99.90;;;;;;5032457;28;20471;-77
2021/11/30 00:45:09;;;;;;;11.77;6.57;;;4.60;99.90;;;;;;5032499;28;20423;-77
2021/11/30 00:47:44;;;;;;;10.30;6.73;;;4.60;99.90;;;;;;5032452;28;20977;-77
2021/11/30 00:50:11;;;;;;;9.73;6.90;;;4.60;99.90;;;;;;5032275;28;20465;-77
2021/11/30 00:52:37;;;;;;;15.77;7.50;;;4.60;99.90;;;;;;5032316;28;20527;-77
2021/11/30 00:55:04;;;;;;;11.70;7.13;;;4.70;99.90;;;;;;5032203;28;20420;-77
2021/11/30 00:57:30;;;;;;;12.00;6.50;;;4.70;99.90;;;;;;5032273;28;20459;-76
2021/11/30 00:59:56;;;;;;;13.47;6.70;;;4.70;99.90;;;;;;5032101;28;20462;-77
2021/11/30 01:02:22;;;;;;;13.83;7.37;;;4.70;99.90;;;;;;5032052;28;20452;-77
2021/11/30 01:04:48;;;;;;;10.17;6.30;;;4.70;99.90;;;;;;5032288;28;20188;-77
2021/11/30 01:07:15;;;;;;;12.30;6.90;;;4.70;99.90;;;;;;5032102;28;20268;-77
2021/11/30 01:09:42;;;;;;;9.47;6.37;;;4.70;99.90;;;;;;5031655;28;20464;-77
2021/11/30 01:12:09;;;;;;;16.70;7.20;;;4.70;99.90;;;;;;5032070;28;20524;-77
2021/11/30 01:14:35;;;;;;;11.10;5.87;;;4.70;99.90;;;;;;5031855;28;20456;-77
2021/11/30 01:17:01;;;;;;;13.20;6.67;;;4.70;99.90;;;;;;5031809;28;20453;-77
2021/11/30 01:19:27;;;;;;;11.57;6.20;;;4.70;99.90;;;;;;5031819;28;21062;-77
2021/11/30 01:21:53;;;;;;;9.77;5.70;;;4.70;99.90;;;;;;5031661;28;20525;-77
2021/11/30 01:24:19;;;;;;;11.60;6.87;;;4.70;99.90;;;;;;5031668;28;20503;-77
2021/11/30 01:26:45;;;;;;;12.10;6.50;;;4.70;99.90;;;;;;5031649;28;20841;-77
2021/11/30 01:29:11;;;;;;;8.80;5.17;;;4.70;99.90;;;;;;5031563;28;20531;-77
2021/11/30 01:31:37;;;;;;;11.27;6.10;;;4.70;99.90;;;;;;5031392;28;20236;-77
2021/11/30 01:34:03;;;;;;;10.30;5.13;;;4.70;99.90;;;;;;5031576;28;20186;-77
2021/11/30 01:36:29;;;;;;;10.70;5.80;;;4.70;99.90;;;;;;5031463;28;20435;-77
2021/11/30 01:38:59;;;;;;;8.13;5.23;;;4.70;99.90;;;;;;5031395;28;20420;-77
2021/11/30 01:41:26;;;;;;;14.67;6.00;;;4.70;99.90;;;;;;5031183;28;20498;-77
2021/11/30 01:43:52;;;;;;;9.03;4.83;;;4.70;99.90;;;;;;5031512;28;20560;-77
2021/11/30 01:51:30;;;;;;;7.00;3.80;;;4.80;99.90;;;;;;5032702;28;20438;-77
2021/11/30 01:53:57;;;;;;;5.37;3.60;;;4.80;99.90;;;;;;5031119;28;20473;-77
2021/11/30 01:56:24;;;;;;;9.07;4.47;;;4.80;99.90;;;;;;5031411;28;20910;-77
2021/11/30 01:58:52;;;;;;;7.23;4.27;;;4.80;99.90;;;;;;5031344;28;20426;-77
2021/11/30 02:01:18;;;;;;;9.20;4.50;;;4.90;99.90;;;;;;5030804;28;21085;-77
2021/11/30 02:03:45;;;;;;;7.37;4.60;;;4.80;99.90;;;;;;5030963;28;20539;-77
2021/11/30 02:06:10;;;;;;;9.80;4.20;;;4.80;99.90;;;;;;5030973;28;20426;-77
2021/11/30 02:08:36;;;;;;;6.60;4.23;;;4.90;99.90;;;;;;5030936;28;20494;-77
2021/11/30 02:11:03;;;;;;;7.83;4.13;;;4.90;99.90;;;;;;5030525;28;20445;-77
2021/11/30 02:13:29;;;;;;;7.13;4.50;;;4.90;99.90;;;;;;5030884;28;20198;-77
2021/11/30 02:15:56;;;;;;;6.00;4.30;;;4.90;99.90;;;;;;5030755;28;20847;-77
2021/11/30 02:18:24;;;;;;;9.43;4.67;;;4.90;99.90;;;;;;5030803;28;20427;-77
2021/11/30 02:20:56;;;;;;;7.83;3.80;;;4.90;99.90;;;;;;5030369;28;20856;-76
2021/11/30 02:26:14;;;;;;;10.90;4.27;;;4.90;99.90;;;;;;5031978;28;20988;-77
2021/11/30 02:28:43;;;;;;;8.77;4.00;;;4.90;99.90;;;;;;5030723;28;20419;-77
2021/11/30 02:31:12;;;;;;;8.43;4.23;;;4.90;99.90;;;;;;5030390;28;20997;-77
2021/11/30 02:33:38;;;;;;;9.47;4.17;;;4.90;99.90;;;;;;5030710;28;20418;-77
2021/11/30 02:36:26;;;;;;;5.73;3.67;;;4.80;99.90;;;;;;5030400;28;20446;-77
2021/11/30 02:38:54;;;;;;;6.30;4.30;;;4.80;99.90;;;;;;5030562;28;20456;-77
2021/11/30 02:41:20;;;;;;;8.13;4.00;;;4.80;99.90;;;;;;5030289;28;20962;-77
2021/11/30 02:43:46;;;;;;;6.27;4.47;;;4.70;99.90;;;;;;5030602;28;20460;-77
2021/11/30 02:46:47;;;;;;;5.93;4.17;;;4.60;99.90;;;;;;5030399;28;20983;-77
2021/11/30 02:49:19;;;;;;;7.27;3.93;;;4.70;99.90;;;;;;5029624;28;20424;-77
2021/11/30 02:51:49;;;;;;;7.43;3.90;;;4.50;99.90;;;;;;5030231;28;20480;-77
2021/11/30 02:54:18;;;;;;;8.17;4.17;;;4.50;99.90;;;;;;5030381;28;20551;-77
2021/11/30 02:56:53;;;;;;;5.23;3.70;;;4.50;99.90;;;;;;5030318;28;20809;-77
2021/11/30 02:59:20;;;;;;;7.00;4.03;;;4.40;99.90;;;;;;5030272;28;20477;-77
2021/11/30 03:01:59;;;;;;;10.20;4.00;;;4.40;99.90;;;;;;5030200;28;20815;-77
2021/11/30 03:04:25;;;;;;;8.20;3.67;;;4.30;99.90;;;;;;5030185;28;20558;-77
2021/11/30 03:06:53;;;;;;;9.40;4.87;;;4.20;99.90;;;;;;5030149;28;20418;-77
2021/11/30 03:09:20;;;;;;;7.33;4.30;;;4.20;99.90;;;;;;5030183;28;20670;-77
2021/11/30 03:11:46;;;;;;;9.83;4.30;;;4.20;99.90;;;;;;5029971;28;20954;-77
2021/11/30 03:14:12;;;;;;;5.50;4.00;;;4.20;99.90;;;;;;5030183;28;20427;-77
2021/11/30 03:16:39;;;;;;;7.43;4.13;;;4.20;99.90;;;;;;5030176;28;20512;-77
2021/11/30 03:19:06;;;;;;;7.00;4.70;;;4.20;99.90;;;;;;5030003;28;20423;-77
2021/11/30 03:21:32;;;;;;;7.00;3.73;;;4.10;99.90;;;;;;5029833;28;20458;-77
2021/11/30 03:23:58;;;;;;;6.00;3.80;;;4.10;99.90;;;;;;5030003;28;20466;-77
2021/11/30 03:26:24;;;;;;;10.73;4.40;;;4.00;99.90;;;;;;5030058;28;20422;-77
2021/11/30 03:28:50;;;;;;;6.60;4.00;;;3.90;99.90;;;;;;5030268;28;20426;-77
2021/11/30 03:34:02;;;;;;;6.97;4.17;;;4.00;99.90;;;;;;5032352;28;20234;-77
2021/11/30 03:36:30;;;;;;;5.73;3.87;;;4.00;99.90;;;;;;5033618;28;20425;-77
2021/11/30 03:38:57;;;;;;;11.20;4.63;;;4.00;99.90;;;;;;5033646;28;20493;-77
2021/11/30 03:41:23;;;;;;;8.60;5.43;;;4.00;99.90;;;;;;5033435;28;20465;-78
2021/11/30 03:43:49;;;;;;;8.50;5.73;;;4.00;99.90;;;;;;5033560;28;20462;-77
2021/11/30 03:46:16;;;;;;;9.10;4.90;;;4.00;99.90;;;;;;5033549;28;20419;-77
2021/11/30 03:48:41;;;;;;;8.73;5.20;;;4.10;99.90;;;;;;5033526;28;20508;-77
2021/11/30 03:51:07;;;;;;;8.30;4.70;;;4.10;99.90;;;;;;5033103;28;20901;-78
2021/11/30 03:53:33;;;;;;;8.13;5.20;;;4.00;99.90;;;;;;5033381;28;20191;-76
2021/11/30 03:55:59;;;;;;;9.30;5.03;;;4.00;99.90;;;;;;5033708;28;20180;-77
2021/11/30 03:58:25;;;;;;;6.60;4.47;;;4.00;99.90;;;;;;5033295;28;20427;-77
2021/11/30 04:00:50;;;;;;;6.40;4.13;;;4.00;99.90;;;;;;5033100;28;20210;-76
2021/11/30 04:03:17;;;;;;;7.13;4.60;;;4.00;99.90;;;;;;5033079;28;20218;-77
2021/11/30 04:05:42;;;;;;;6.37;3.87;;;4.00;99.90;;;;;;5033109;28;20276;-77
2021/11/30 04:08:08;;;;;;;5.83;4.33;;;4.00;99.90;;;;;;5033137;28;20510;-77
2021/11/30 04:10:34;;;;;;;7.77;4.50;;;4.00;99.90;;;;;;5033295;28;20198;-77
2021/11/30 04:13:00;;;;;;;5.07;3.90;;;4.00;99.90;;;;;;5032916;28;20204;-77
2021/11/30 04:15:26;;;;;;;8.03;4.50;;;4.00;99.90;;;;;;5033175;28;20287;-77
2021/11/30 04:17:52;;;;;;;8.57;4.73;;;4.00;99.90;;;;;;5032975;28;20560;-77
2021/11/30 04:20:18;;;;;;;7.57;4.43;;;4.00;99.90;;;;;;5032710;28;20419;-78
2021/11/30 04:22:44;;;;;;;6.50;3.50;;;4.10;99.90;;;;;;5032673;28;20266;-78
2021/11/30 04:25:12;;;;;;;6.87;4.43;;;4.10;99.90;;;;;;5032892;28;20427;-77
2021/11/30 04:27:39;;;;;;;5.70;3.70;;;4.10;99.90;;;;;;5032839;28;20477;-77
2021/11/30 04:30:07;;;;;;;6.60;3.50;;;4.20;99.90;;;;;;5032648;28;20430;-77
2021/11/30 04:32:33;;;;;;;6.10;3.90;;;4.20;99.90;;;;;;5032637;28;20816;-78
2021/11/30 04:34:59;;;;;;;5.30;3.40;;;4.20;99.90;;;;;;5032559;28;20419;-77
2021/11/30 04:37:25;;;;;;;6.47;3.47;;;4.20;99.90;;;;;;5032643;28;20771;-77
2021/11/30 04:39:51;;;;;;;6.37;3.40;;;4.20;99.90;;;;;;5032622;28;20181;-76
2021/11/30 04:42:17;;;;;;;5.73;3.90;;;4.20;99.90;;;;;;5032488;28;20205;-77
2021/11/30 04:44:52;;;;;;;4.77;2.87;;;4.30;99.90;;;;;;5032008;28;20212;-77
2021/11/30 04:47:18;;;;;;;7.03;3.40;;;4.30;99.90;;;;;;5032467;28;20180;-77
2021/11/30 04:52:13;;;;;;;6.23;3.87;;;4.30;99.90;;;;;;5033606;28;20435;-77
2021/11/30 04:54:38;;;;;;;4.90;3.13;;;4.30;99.90;;;;;;5032375;28;20427;-77
2021/11/30 04:57:05;;;;;;;4.63;2.90;;;4.30;99.90;;;;;;5032357;28;20430;-77
2021/11/30 04:59:31;;;;;;;5.07;3.57;;;4.40;99.90;;;;;;5032698;28;20808;-76
2021/11/30 05:01:58;;;;;;;5.40;3.00;;;4.40;99.90;;;;;;5032075;28;20451;-77
2021/11/30 05:04:24;;;;;;;7.33;3.30;;;4.40;99.90;;;;;;5032015;28;20548;-77
2021/11/30 05:06:50;;;;;;;5.93;3.40;;;4.50;99.90;;;;;;5032216;28;20498;-77
2021/11/30 05:09:16;;;;;;;4.83;3.40;;;4.50;99.90;;;;;;5031978;28;20874;-78
2021/11/30 05:11:42;;;;;;;5.60;3.33;;;4.50;99.90;;;;;;5032028;28;20288;-77
2021/11/30 05:14:08;;;;;;;4.03;3.30;;;4.60;99.90;;;;;;5031899;28;20543;-77
2021/11/30 05:16:34;;;;;;;4.23;2.57;;;4.60;99.90;;;;;;5031777;28;20435;-77
2021/11/30 05:19:00;;;;;;;4.57;4.10;;;4.70;99.90;;;;;;5031644;28;20520;-77
2021/11/30 05:21:26;;;;;;;5.37;3.87;;;4.70;99.90;;;;;;5031629;28;20479;-77
2021/11/30 05:23:59;;;;;;;5.37;3.70;;;4.70;99.90;;;;;;5031678;28;20466;-77
2021/11/30 05:26:26;;;;;;;6.63;4.07;;;4.70;99.90;;;;;;5031797;28;20427;-77
2021/11/30 05:28:52;;;;;;;8.73;4.33;;;4.90;99.90;;;;;;5031668;28;20924;-77
2021/11/30 05:31:18;;;;;;;6.13;4.77;;;4.80;99.90;;;;;;5031429;28;20460;-77
2021/11/30 05:33:48;;;;;;;6.80;4.30;;;4.90;99.90;;;;;;5031496;28;20787;-77
2021/11/30 05:36:16;;;;;;;6.93;4.63;;;5.00;99.90;;;;;;5031598;28;20421;-77
2021/11/30 05:38:42;;;;;;;7.17;5.10;;;5.00;99.90;;;;;;5031419;28;20439;-77
2021/11/30 05:41:08;;;;;;;6.57;5.03;;;5.10;99.90;;;;;;5031322;28;20826;-78
2021/11/30 05:43:34;;;;;;;7.07;4.63;;;5.20;99.90;;;;;;5031169;28;20467;-77
2021/11/30 05:46:00;;;;;;;6.00;4.40;;;5.20;99.90;;;;;;5031418;28;20274;-77
2021/11/30 05:48:26;;;;;;;6.83;4.87;;;5.30;99.90;;;;;;5031272;28;20514;-78
2021/11/30 05:50:52;;;;;;;6.33;4.63;;;5.30;99.90;;;;;;5031182;28;20485;-78
2021/11/30 05:53:18;;;;;;;6.97;5.50;;;5.30;99.90;;;;;;5031281;28;20817;-77
2021/11/30 05:55:53;;;;;;;7.10;4.80;;;5.40;99.90;;;;;;5031283;28;20431;-77
2021/11/30 05:58:19;;;;;;;7.43;4.70;;;5.40;99.90;;;;;;5030422;28;20566;-78
2021/11/30 06:00:45;;;;;;;9.10;4.73;;;5.40;99.90;;;;;;5030912;28;20421;-77
2021/11/30 06:03:28;;;;;;;7.03;4.53;;;5.50;99.90;;;;;;5031023;28;20229;-76
2021/11/30 06:05:54;;;;;;;7.77;5.43;;;5.50;99.90;;;;;;5031098;28;20427;-77
2021/11/30 06:08:19;;;;;;;6.80;4.70;;;5.50;99.90;;;;;;5031012;28;20428;-77
2021/11/30 06:10:45;;;;;;;6.23;4.70;;;5.50;99.90;;;;;;5030697;28;20185;-77
2021/11/30 06:13:11;;;;;;;5.07;4.00;;;5.60;99.90;;;;;;5030960;28;20188;-77
2021/11/30 06:15:37;;;;;;;7.50;5.43;;;5.60;99.90;;;;;;5031072;28;20440;-77
2021/11/30 06:18:03;;;;;;;6.70;5.10;;;5.60;99.90;;;;;;5030932;28;20749;-78
2021/11/30 06:20:29;;;;;;;8.93;5.63;;;5.70;99.90;;;;;;5030469;28;20226;-77
2021/11/30 06:22:55;;;;;;;6.40;4.80;;;5.70;99.90;;;;;;5030590;28;21004;-78
2021/11/30 06:25:21;;;;;;;7.03;5.23;;;5.80;99.90;;;;;;5030715;28;20464;-77
2021/11/30 06:27:46;;;;;;;7.07;5.17;;;5.00;99.90;;;;;;5030775;28;20185;-77
2021/11/30 06:30:15;;;;;;;8.80;5.97;;;5.90;99.90;;;;;;5030436;28;20840;-77
2021/11/30 06:32:41;;;;;;;7.20;5.10;;;5.90;99.90;;;;;;5030739;28;20201;-77
2021/11/30 06:35:07;;;;;;;7.23;5.73;;;5.90;99.90;;;;;;5030488;28;20478;-77
2021/11/30 06:37:34;;;;;;;8.13;6.50;;;5.90;99.90;;;;;;5030698;28;20215;-77
2021/11/30 06:40:00;;;;;;;12.30;6.80;;;6.00;99.90;;;;;;5030224;28;20429;-77
2021/11/30 06:42:25;;;;;;;10.93;6.13;;;6.00;99.90;;;;;;5030445;28;20816;-77
2021/11/30 06:44:51;;;;;;;11.70;7.00;;;6.00;99.90;;;;;;5030429;28;20465;-77
2021/11/30 06:47:18;;;;;;;12.67;8.10;;;;;;;;;;5030646;28;20183;-77
2021/11/30 06:49:44;;;;;;;11.63;7.77;;;6.10;99.90;;;;;;5030242;28;20413;-77
2021/11/30 06:52:11;;;;;;;13.70;8.60;;;6.10;99.90;;;;;;5030634;28;20535;-77
2021/11/30 06:54:43;;;;;;;11.27;8.70;;;6.10;99.90;;;;;;5030370;28;20772;-77
2021/11/30 06:57:10;;;;;;;10.60;6.73;;;6.20;99.90;;;;;;5030465;28;20432;-77
2021/11/30 06:59:36;;;;;;;10.73;7.40;;;6.20;99.90;;;;;;5030129;28;20508;-78
2021/11/30 07:02:01;;;;;;;11.90;8.20;;;6.20;99.90;;;;;;5030226;28;20482;-77
2021/11/30 07:04:28;;;;;;;12.30;9.30;;;6.20;99.90;;;;;;5030220;28;20466;-77
2021/11/30 07:09:23;;;;;;;10.40;7.20;;;6.20;99.90;;;;;;5034371;28;20412;-77
2021/11/30 07:14:18;;;;;;;11.50;6.13;;;6.30;99.90;;;;;;5035417;28;20427;-77
2021/11/30 07:16:45;;;;;;;8.47;6.40;;;6.30;99.90;;;;;;5034162;28;20428;-77
2021/11/30 07:19:11;;;;;;;10.80;7.57;;;6.30;99.90;;;;;;5033937;28;20791;-78
2021/11/30 07:21:37;;;;;;;9.13;5.93;;;6.40;99.90;;;;;;5033760;28;20470;-77
2021/11/30 07:24:03;;;;;;;7.93;6.13;;;6.30;99.90;;;;;;5033979;28;20216;-78
2021/11/30 07:26:29;;;;;;;9.10;5.63;;;6.30;99.90;;;;;;5033894;28;20279;-78
2021/11/30 07:28:55;;;;;;;7.50;5.37;;;6.30;99.90;;;;;;5033924;28;20511;-77
2021/11/30 07:31:21;;;;;;;7.23;4.87;;;6.40;99.90;;;;;;5033595;28;20235;-78
2021/11/30 07:33:49;;;;;;;8.90;5.50;;;6.40;99.90;;;;;;5033976;28;20511;-77
2021/11/30 07:36:17;;;;;;;7.57;4.73;;;6.40;99.90;;;;;;5033602;28;20437;-77
2021/11/30 07:38:45;;;;;;;7.77;5.70;;;6.40;99.90;;;;;;5033985;28;20521;-77
2021/11/30 07:41:11;;;;;;;10.37;6.80;;;6.30;99.90;;;;;;5033716;28;20458;-77
2021/11/30 07:43:37;;;;;;;10.70;5.50;;;6.30;99.90;;;;;;5033539;28;20557;-77
2021/11/30 07:46:04;;;;;;;6.60;4.57;;;6.30;99.90;;;;;;5033772;28;20760;-78
2021/11/30 07:48:30;;;;;;;11.70;6.00;;;6.40;99.90;;;;;;5033611;28;20466;-78
2021/11/30 07:50:58;;;;;;;10.87;6.87;;;6.40;99.90;;;;;;5033205;28;20429;-77
2021/11/30 07:53:24;;;;;;;9.00;6.37;;;6.40;99.90;;;;;;5033676;28;20426;-77
2021/11/30 07:55:51;;;;;;;8.03;6.07;;;6.40;99.90;;;;;;5033662;28;20933;-77
2021/11/30 07:58:19;;;;;;;15.27;8.03;;;6.50;99.90;;;;;;5033404;28;20434;-77
2021/11/30 08:00:45;;;;;;;9.37;6.03;;;6.50;99.90;;;;;;5032995;28;20434;-77
2021/11/30 08:03:11;;;;;;;9.00;6.57;;;6.50;99.90;;;;;;5033331;28;20921;-77
2021/11/30 08:05:37;;;;;;;7.00;5.60;;;6.60;99.90;;;;;;5033176;28;20463;-77
2021/11/30 08:08:03;;;;;;;7.33;5.00;;;6.60;99.90;;;;;;5033276;28;20187;-76
2021/11/30 08:10:29;;;;;;;7.57;5.53;;;6.60;99.90;;;;;;5034136;28;20432;-77
2021/11/30 08:12:56;;;;;;;6.77;5.23;;;6.60;99.90;;;;;;5033091;28;20454;-78
2021/11/30 08:15:22;;;;;;;7.10;5.80;;;6.60;99.90;;;;;;5033669;28;20422;-77
2021/11/30 08:17:48;;;;;;;8.93;6.03;;;6.70;99.90;;;;;;5033546;28;20496;-78
2021/11/30 08:20:14;;;;;;;7.97;6.03;;;6.70;99.90;;;;;;5032427;28;20430;-78
2021/11/30 08:22:41;;;;;;;8.13;6.20;;;6.70;99.90;;;;;;5034852;28;20223;-78
2021/11/30 08:25:09;;;;;;;9.10;6.43;;;6.70;99.90;;;;;;5034419;28;20438;-78
2021/11/30 08:27:35;;;;;;;12.30;7.03;;;6.80;99.90;;;;;;5033956;28;20469;-79
2021/11/30 08:30:02;;;;;;;11.90;6.90;;;6.80;99.90;;;;;;5035424;28;20505;-79
2021/11/30 08:32:28;;;;;;;10.57;7.70;;;6.80;99.90;;;;;;5035350;28;20443;-78
2021/11/30 08:34:56;;;;;;;10.30;6.60;;;6.80;99.90;;;;;;5038059;28;20922;-79
2021/11/30 08:37:22;;;;;;;12.63;7.73;;;6.90;99.90;;;;;;5036842;28;20419;-79
2021/11/30 08:39:49;;;;;;;12.17;7.63;;;6.90;99.90;;;;;;5035341;28;20870;-78
2021/11/30 08:42:17;;;;;;;10.60;7.10;;;7.00;99.90;;;;;;5035852;28;20530;-78
2021/11/30 08:44:43;;;;;;;10.63;7.20;;;7.00;99.90;;;;;;5035117;28;20471;-79
2021/11/30 08:47:11;;;;;;;10.40;6.77;;;7.00;99.90;;;;;;5036273;28;20426;-79
2021/11/30 08:49:37;;;;;;;11.93;7.30;;;7.10;99.90;;;;;;5035818;28;20427;-78
2021/11/30 08:52:06;;;;;;;11.57;8.13;;;7.00;99.90;;;;;;5036586;28;20446;-78
2021/11/30 08:54:33;;;;;;;12.07;7.47;;;7.10;99.90;;;;;;5036612;28;20295;-80
2021/11/30 08:57:00;;;;;;;12.13;8.33;;;7.10;99.90;;;;;;5036341;28;20836;-79
2021/11/30 08:59:27;;;;;;;13.83;8.20;;;7.10;99.90;;;;;;5034953;28;20432;-79
2021/11/30 09:01:53;;;;;;;11.80;7.70;;;7.20;99.90;;;;;;5035867;28;20458;-79
2021/11/30 09:04:19;;;;;;;13.10;8.53;;;7.10;99.90;;;;;;5036069;28;20836;-79
2021/11/30 09:06:45;;;;;;;12.67;7.80;;;7.20;99.90;;;;;;5035756;28;20423;-79
2021/11/30 09:09:12;;;;;;;8.73;6.20;;;7.30;99.90;;;;;;5033734;28;20909;-80
2021/11/30 09:11:38;;;;;;;9.00;6.63;;;7.30;99.90;;;;;;5034963;28;20522;-79
2021/11/30 09:14:05;;;;;;;9.60;6.60;;;7.30;99.90;;;;;;5034907;28;20431;-78
2021/11/30 09:16:32;;;;;;;11.60;7.23;;;7.30;99.90;;;;;;5033462;28;20438;-79
2021/11/30 09:18:59;;;;;;;11.57;7.20;;;7.30;99.90;;;;;;5035384;28;20429;-77
2021/11/30 09:21:26;;;;;;;10.67;7.47;;;7.30;99.90;;;;;;5032433;28;20467;-78
2021/11/30 09:23:53;;;;;;;9.33;6.00;;;7.40;99.90;;;;;;5033118;28;21056;-77
2021/11/30 09:26:20;;;;;;;10.97;6.07;;;7.30;99.90;;;;;;5033455;28;20423;-78
2021/11/30 09:28:46;;;;;;;9.97;6.77;;;7.30;99.90;;;;;;5031922;28;20455;-77
2021/11/30 09:31:12;;;;;;;8.63;6.63;;;7.30;99.90;;;;;;5031629;28;20474;-77
2021/11/30 09:33:39;;;;;;;8.30;5.70;;;7.30;99.90;;;;;;5031856;28;20431;-77
2021/11/30 09:36:06;;;;;;;9.50;5.63;;;7.40;99.90;;;;;;5034073;28;20426;-78
2021/11/30 09:38:32;;;;;;;8.73;5.90;;;7.40;99.90;;;;;;5027210;28;20943;-78
2021/11/30 09:41:01;;;;;;;9.40;7.00;;;7.40;99.90;;;;;;5025227;28;20434;-78
2021/11/30 09:43:28;;;;;;;10.10;7.43;;;7.50;99.90;;;;;;5030387;28;20686;-78
2021/11/30 09:45:56;;;;;;;11.13;7.37;;;7.50;99.90;;;;;;5032872;28;20416;-78
2021/11/30 09:48:23;;;;;;;10.83;6.87;;;7.50;99.90;;;;;;5032133;28;21115;-78
2021/11/30 09:50:49;;;;;;;9.77;7.70;;;7.50;99.90;;;;;;5030013;28;20802;-78
2021/11/30 09:53:15;;;;;;;10.23;6.60;;;7.60;99.90;;;;;;5027407;28;20927;-78
2021/11/30 09:55:43;;;;;;;9.70;6.87;;;7.50;99.90;;;;;;5029588;28;20420;-77
2021/11/30 09:58:10;;;;;;;8.63;6.07;;;7.50;99.90;;;;;;5029811;28;20439;-78
2021/11/30 10:00:36;;;;;;;9.93;7.30;;;7.60;99.90;;;;;;5028713;28;20424;-78
2021/11/30 10:03:03;;;;;;;7.27;4.93;;;7.60;99.90;;;;;;5030203;28;20476;-78
2021/11/30 10:05:30;;;;;;;9.63;5.50;;;7.70;99.90;;;;;;5033882;28;20428;-80
2021/11/30 10:07:57;;;;;;;9.33;5.53;;;7.70;99.90;;;;;;5033622;28;20863;-80
2021/11/30 10:10:30;;;;;;;10.50;7.20;;;7.80;99.90;;;;;;5017419;28;20803;-80
2021/11/30 10:13:05;;;;;;;7.70;5.00;;;7.80;99.90;;;;;;5032914;28;20455;-79
2021/11/30 10:15:48;;;;;;;7.07;4.63;;;7.80;99.90;;;;;;5018512;28;20450;-79
2021/11/30 10:18:24;;;;;;;7.50;5.57;;;7.90;99.90;;;;;;5031059;28;20997;-79
2021/11/30 10:21:23;;;;;;;7.17;5.67;;;7.90;99.90;;;;;;5031486;28;20475;-77
2021/11/30 10:24:01;;;;;;;8.43;6.00;;;7.90;99.90;;;;;;5027592;28;20518;-77
2021/11/30 10:26:39;;;;;;;7.23;5.30;;;8.00;99.90;;;;;;5029384;28;20427;-78
2021/11/30 10:29:12;;;;;;;10.90;7.07;;;8.00;99.90;;;;;;5027267;28;20916;-78
2021/11/30 10:31:56;;;;;;;12.60;6.27;;;8.10;99.90;;;;;;5027045;28;20535;-77
2021/11/30 10:34:28;;;;;;;7.17;5.67;;;8.10;99.90;;;;;;5027097;28;20431;-78
2021/11/30 10:37:20;;;;;;;9.20;6.57;;;8.10;99.90;;;;;;5027041;28;20424;-77
2021/11/30 10:39:46;;;;;;;7.27;5.70;;;8.20;99.90;;;;;;5008584;28;20444;-77
2021/11/30 10:42:14;;;;;;;9.43;6.43;;;8.20;99.90;;;;;;5026986;28;21057;-77
2021/11/30 10:44:41;;;;;;;8.60;6.30;;;8.20;99.90;;;;;;5026887;28;20215;-77
2021/11/30 10:47:17;;;;;;;9.83;6.77;;;8.20;99.90;;;;;;5027583;28;20420;-78
2021/11/30 10:49:56;;;;;;;7.60;5.67;;;8.10;99.90;;;;;;5027021;28;20427;-78
2021/11/30 10:52:26;;;;;;;7.77;5.37;;;8.30;99.90;;;;;;5027151;28;20530;-77
2021/11/30 10:55:14;;;;;;;12.10;6.10;;;8.20;99.90;;;;;;5027073;28;20420;-77
2021/11/30 10:57:41;;;;;;;9.57;4.53;;;8.20;99.90;;;;;;5026949;28;20428;-78
2021/11/30 11:00:13;;;;;;;5.90;4.63;;;8.20;99.90;;;;;;5027133;28;20511;-78
2021/11/30 11:05:34;;;;;;;8.73;4.93;;;8.20;99.90;;;;;;5012614;28;20404;-78
2021/11/30 11:08:05;;;;;;;9.40;4.90;;;8.30;99.90;;;;;;5027614;28;20428;-78
2021/11/30 11:10:33;;;;;;;6.93;4.90;;;8.30;99.90;;;;;;5026607;28;20416;-77
2021/11/30 11:13:17;;;;;;;11.27;5.83;;;8.20;99.90;;;;;;5026789;28;20932;-78
2021/11/30 11:15:43;;;;;;;8.20;4.57;;;8.20;99.90;;;;;;5027568;28;20419;-79
2021/11/30 11:18:23;;;;;;;6.50;4.40;;;8.30;99.90;;;;;;5029268;28;20795;-78
2021/11/30 11:21:11;;;;;;;9.53;5.00;;;8.40;99.90;;;;;;5028035;28;20450;-79
2021/11/30 11:23:44;;;;;;;8.93;6.03;;;8.30;99.90;;;;;;5003342;28;20460;-78
2021/11/30 11:26:22;;;;;;;8.50;5.60;;;8.30;99.90;;;;;;5029230;28;20412;-78
2021/11/30 11:28:50;;;;;;;7.83;5.60;;;8.30;99.90;;;;;;5028798;28;20416;-78
2021/11/30 11:31:16;;;;;;;9.87;5.60;;;8.40;99.90;;;;;;5028027;28;20438;-78
2021/11/30 11:33:42;;;;;;;8.60;5.13;;;8.30;99.90;;;;;;5029260;28;20438;-78
2021/11/30 11:36:08;;;;;;;7.40;4.90;;;8.40;99.90;;;;;;5029475;28;20428;-79
2021/11/30 11:38:34;;;;;;;8.40;5.20;;;8.40;99.90;;;;;;5028925;28;20482;-78
2021/11/30 11:41:00;;;;;;;8.33;5.73;;;8.40;99.90;;;;;;5029230;28;20478;-78
2021/11/30 11:43:27;;;;;;;8.20;5.60;;;8.50;99.90;;;;;;5028304;28;20469;-78
2021/11/30 11:45:53;;;;;;;9.40;5.93;;;8.40;99.90;;;;;;5028192;28;20423;-78
2021/11/30 11:48:20;;;;;;;5.73;4.40;;;8.40;99.90;;;;;;5028177;28;20418;-78
2021/11/30 11:51:12;;;;;;;6.20;5.10;;;8.40;99.90;;;;;;5027679;28;20485;-78
2021/11/30 11:53:58;;;;;;;7.47;5.33;;;8.50;99.90;;;;;;5025035;28;20466;-79
2021/11/30 11:56:30;;;;;;;7.80;5.53;;;8.50;99.90;;;;;;5029471;28;20514;-78
2021/11/30 11:59:13;;;;;;;9.17;5.93;;;8.50;99.90;;;;;;5033820;28;20441;-77
2021/11/30 12:01:42;;;;;;;8.57;5.27;;;8.40;99.90;;;;;;5033909;28;20953;-78
2021/11/30 12:04:10;;;;;;;5.63;3.83;;;8.50;99.90;;;;;;5033758;28;20544;-78
2021/11/30 12:07:01;;;;;;;7.43;4.40;;;8.50;99.90;;;;;;5034342;28;20953;-78
2021/11/30 12:09:29;;;;;;;5.57;3.50;;;8.50;99.90;;;;;;5033763;28;20426;-78
2021/11/30 12:11:57;;;;;;;4.90;3.93;;;8.60;99.90;;;;;;5033375;28;20802;-78
2021/11/30 12:14:38;;;;;;;7.07;4.13;;;8.60;99.90;;;;;;5033924;28;20968;-78
2021/11/30 12:17:15;;;;;;;6.70;3.97;;;8.60;99.90;;;;;;5034159;28;20422;-79
2021/11/30 12:19:48;;;;;;;7.70;4.50;;;8.70;99.90;;;;;;5034646;28;20427;-77
2021/11/30 12:22:42;;;;;;;5.80;3.83;;;8.60;99.90;;;;;;5033720;28;20540;-78
2021/11/30 12:25:32;;;;;;;6.37;4.17;;;8.70;99.90;;;;;;5034025;28;20509;-79
2021/11/30 12:28:05;;;;;;;7.50;3.90;;;8.70;99.90;;;;;;5024995;28;20481;-79
2021/11/30 12:30:49;;;;;;;6.57;3.90;;;8.60;99.90;;;;;;5033471;28;20404;-78
2021/11/30 12:33:28;;;;;;;5.43;3.80;;;8.70;99.90;;;;;;5014744;28;20784;-78
2021/11/30 12:36:07;;;;;;;8.77;6.20;;;8.60;99.90;;;;;;5014344;28;20412;-78
2021/11/30 12:38:37;;;;;;;7.13;4.73;;;8.60;99.90;;;;;;5013884;28;20419;-78
2021/11/30 12:41:31;;;;;;;6.70;5.00;;;8.70;99.90;;;;;;5013101;28;20447;-78
2021/11/30 12:44:23;;;;;;;6.47;4.90;;;8.70;99.90;;;;;;5013828;28;20547;-79
2021/11/30 12:46:54;;;;;;;10.17;5.77;;;8.70;99.90;;;;;;5013506;28;20413;-78
2021/11/30 12:49:31;;;;;;;8.10;5.33;;;8.60;99.90;;;;;;5012634;28;20486;-77
2021/11/30 12:52:08;;;;;;;9.63;5.70;;;8.70;99.90;;;;;;5012720;28;20881;-77
2021/11/30 12:54:35;;;;;;;11.10;6.23;;;8.60;99.90;;;;;;5014746;28;20422;-78
2021/11/30 12:57:02;;;;;;;8.53;6.03;;;8.70;99.90;;;;;;5013325;28;20451;-78
2021/11/30 12:59:37;;;;;;;9.27;5.80;;;8.70;99.90;;;;;;5012998;28;20531;-78
2021/11/30 13:02:22;;;;;;;7.60;5.70;;;8.70;99.90;;;;;;5012716;28;20440;-78
2021/11/30 13:04:52;;;;;;;7.00;4.90;;;8.70;99.90;;;;;;5012358;28;20982;-77
2021/11/30 13:07:20;;;;;;;8.87;5.80;;;8.70;99.90;;;;;;5011629;28;20418;-77
2021/11/30 13:09:52;;;;;;;8.20;5.47;;;8.70;99.90;;;;;;5012879;28;20701;-78
2021/11/30 13:12:23;;;;;;;9.30;6.43;;;8.80;99.90;;;;;;5016555;28;20448;-79
2021/11/30 13:14:51;;;;;;;7.63;5.70;;;8.80;99.90;;;;;;5017501;28;20842;-79
2021/11/30 13:17:17;;;;;;;10.50;7.20;;;8.80;99.90;;;;;;5015426;28;20424;-79
2021/11/30 13:19:47;;;;;;;7.90;5.77;;;8.80;99.90;;;;;;5016274;28;20435;-79
2021/11/30 13:22:14;;;;;;;9.33;6.60;;;8.80;99.90;;;;;;5016158;28;20601;-79
2021/11/30 13:24:52;;;;;;;9.33;5.60;;;8.80;99.90;;;;;;5016369;28;21044;-79